createdAt,value
2023-05-25T00:01:48.881Z,13.50
2023-05-25T00:06:51.300Z,13.40
2023-05-25T00:11:53.722Z,13.40
2023-05-25T00:16:56.093Z,13.60
2023-05-25T00:22:02.233Z,13.60
2023-05-25T00:27:04.779Z,13.30
2023-05-25T00:32:07.842Z,13.40
2023-05-25T00:37:10.697Z,13.50
2023-05-25T00:42:13.184Z,13.60
2023-05-25T00:47:17.536Z,13.50
2023-05-25T00:52:20.081Z,13.50
2023-05-25T00:57:25.277Z,13.50
2023-05-25T01:02:29.338Z,13.50
2023-05-25T01:07:33.951Z,13.40
2023-05-25T01:12:38.472Z,13.30
2023-05-25T01:17:41.675Z,13.50
2023-05-25T01:22:51.457Z,13.50
2023-05-25T01:28:16.701Z,13.50
2023-05-25T01:33:19.544Z,13.50
2023-05-25T01:38:22.041Z,13.60
2023-05-25T01:43:25.194Z,13.50
2023-05-25T01:48:37.583Z,13.50
2023-05-25T01:53:48.769Z,13.50
2023-05-25T01:58:53.290Z,13.50
2023-05-25T02:03:56.792Z,13.60
2023-05-25T02:08:59.153Z,13.50
2023-05-25T02:14:01.566Z,13.30
2023-05-25T02:19:03.978Z,13.40
2023-05-25T02:24:06.680Z,13.30
2023-05-25T02:29:09.142Z,13.10
2023-05-25T02:34:12.379Z,13.00
2023-05-25T02:39:14.835Z,12.90
2023-05-25T02:44:18.546Z,12.80
2023-05-25T02:49:21.059Z,12.80
2023-05-25T02:54:24.163Z,12.70
2023-05-25T02:59:26.611Z,12.60
2023-05-25T03:04:31.160Z,12.60
2023-05-25T03:09:34.092Z,12.50
2023-05-25T03:14:38.593Z,12.40
2023-05-25T03:19:41.321Z,12.40
2023-05-25T03:24:46.657Z,12.50
2023-05-25T03:29:50.779Z,12.50
2023-05-25T03:34:53.494Z,12.70
2023-05-25T03:39:56.032Z,12.40
2023-05-25T03:44:58.705Z,12.40
2023-05-25T03:50:01.161Z,12.60
2023-05-25T03:55:05.228Z,12.70
2023-05-25T04:00:09.699Z,12.70
2023-05-25T04:05:18.456Z,12.70
2023-05-25T04:10:20.831Z,12.70
2023-05-25T04:15:23.445Z,12.70
2023-05-25T04:20:38.150Z,12.80
2023-05-25T04:25:42.336Z,12.90
2023-05-25T04:30:45.396Z,12.90
2023-05-25T04:36:07.364Z,12.90
2023-05-25T04:41:11.091Z,13.10
2023-05-25T04:46:17.024Z,13.20
2023-05-25T04:56:25.751Z,13.40
2023-05-25T05:01:29.263Z,13.40
2023-05-25T05:06:39.313Z,13.50
2023-05-25T05:11:43.406Z,13.40
2023-05-25T05:16:48.029Z,13.50
2023-05-25T05:21:51.350Z,13.50
2023-05-25T05:26:58.786Z,13.80
2023-05-25T05:32:06.270Z,13.80
2023-05-25T05:37:09.140Z,13.80
2023-05-25T05:42:11.822Z,13.80
2023-05-25T05:47:14.704Z,14.00
2023-05-25T05:52:17.284Z,14.10
2023-05-25T05:57:19.894Z,14.20
2023-05-25T06:02:23.176Z,14.40
2023-05-25T06:07:26.839Z,14.40
2023-05-25T06:12:29.240Z,14.60
2023-05-25T06:17:31.930Z,14.90
2023-05-25T06:22:34.601Z,14.80
2023-05-25T06:27:37.035Z,15.10
2023-05-25T06:32:39.563Z,15.10
2023-05-25T06:37:42.148Z,15.20
2023-05-25T06:42:45.065Z,15.20
2023-05-25T06:48:16.832Z,15.40
2023-05-25T06:53:19.232Z,15.40
2023-05-25T06:58:21.575Z,15.60
2023-05-25T07:03:23.926Z,15.70
2023-05-25T07:08:26.307Z,15.80
2023-05-25T07:13:28.740Z,16.00
2023-05-25T07:18:31.114Z,16.10
2023-05-25T07:23:33.610Z,16.10
2023-05-25T07:28:36.232Z,16.30
2023-05-25T07:33:38.687Z,16.30
2023-05-25T07:38:41.764Z,16.50
2023-05-25T07:43:44.119Z,16.70
2023-05-25T07:48:46.455Z,16.70
2023-05-25T07:53:49.206Z,16.90
2023-05-25T07:58:51.569Z,17.00
2023-05-25T08:03:54.021Z,17.10
2023-05-25T08:08:56.487Z,17.10
2023-05-25T08:14:00.230Z,17.20
2023-05-25T08:19:02.902Z,17.50
2023-05-25T08:24:06.080Z,17.50
2023-05-25T08:29:08.651Z,17.60
2023-05-25T08:34:11.399Z,17.80
2023-05-25T08:39:14.450Z,18.00
2023-05-25T08:44:16.864Z,18.10
2023-05-25T08:49:20.161Z,18.20
2023-05-25T08:54:32.768Z,18.20
2023-05-25T08:59:58.182Z,18.30
2023-05-25T09:05:02.161Z,18.50
2023-05-25T09:10:05.479Z,18.90
2023-05-25T09:15:10.778Z,19.30
2023-05-25T09:20:14.106Z,19.50
2023-05-25T09:25:22.903Z,20.10
2023-05-25T09:30:25.952Z,20.10
2023-05-25T09:35:28.486Z,20.50
2023-05-25T09:40:36.236Z,20.40
2023-05-25T09:45:38.798Z,20.60
2023-05-25T09:50:41.225Z,20.60
2023-05-25T09:55:53.293Z,20.40
2023-05-25T10:00:56.577Z,20.30
2023-05-25T10:05:59.594Z,20.40
2023-05-25T10:11:03.498Z,20.90
2023-05-25T10:16:09.374Z,21.00
2023-05-25T10:21:13.129Z,21.00
2023-05-25T10:26:20.097Z,21.20
2023-05-25T10:31:23.454Z,21.50
2023-05-25T10:36:27.308Z,21.60
2023-05-25T10:41:29.752Z,22.30
2023-05-25T10:46:32.248Z,22.50
2023-05-25T10:51:41.408Z,22.30
2023-05-25T10:57:14.257Z,22.60
2023-05-25T11:02:17.025Z,22.50
2023-05-25T11:07:22.137Z,22.60
2023-05-25T11:12:24.652Z,22.70
2023-05-25T11:17:32.332Z,22.60
2023-05-25T11:22:36.292Z,22.60
2023-05-25T11:27:46.737Z,23.30
2023-05-25T11:32:50.672Z,23.70
2023-05-25T11:37:53.689Z,23.80
2023-05-25T11:42:58.227Z,23.90
2023-05-25T11:48:00.747Z,23.70
2023-05-25T11:53:07.144Z,23.50
2023-05-25T11:58:09.636Z,23.70
2023-05-25T12:03:34.456Z,24.30
2023-05-25T12:08:37.944Z,24.40
2023-05-25T12:13:41.466Z,25.40
2023-05-25T12:18:43.939Z,25.90
2023-05-25T12:23:46.701Z,26.20
2023-05-25T12:29:08.472Z,26.10
2023-05-25T12:34:14.625Z,28.20
2023-05-25T12:39:24.610Z,28.40
2023-05-25T12:44:31.568Z,28.90
2023-05-25T12:49:34.698Z,29.60
2023-05-25T12:54:38.332Z,30.70
2023-05-25T12:59:42.846Z,31.80
2023-05-25T13:04:45.317Z,31.80
2023-05-25T13:09:47.720Z,32.00
2023-05-25T13:14:50.072Z,32.50
2023-05-25T13:19:52.580Z,33.40
2023-05-25T13:24:55.002Z,33.00
2023-05-25T13:29:58.526Z,33.40
2023-05-25T13:35:01.324Z,32.00
2023-05-25T13:40:04.085Z,32.80
2023-05-25T13:45:07.133Z,34.90
2023-05-25T13:50:11.095Z,33.90
2023-05-25T13:55:13.484Z,34.80
2023-05-25T14:00:16.197Z,37.00
2023-05-25T14:05:19.868Z,37.50
2023-05-25T14:10:22.234Z,38.20
2023-05-25T14:15:25.482Z,38.00
2023-05-25T14:20:27.955Z,37.20
2023-05-25T14:25:30.336Z,37.90
2023-05-25T14:30:32.643Z,37.60
2023-05-25T14:35:35.040Z,37.40
2023-05-25T14:40:37.433Z,37.30
2023-05-25T14:45:39.769Z,38.40
2023-05-25T14:50:43.942Z,39.00
2023-05-25T14:55:46.496Z,38.70
2023-05-25T15:00:49.075Z,37.50
2023-05-25T15:05:51.429Z,37.70
2023-05-25T15:10:53.918Z,37.90
2023-05-25T15:15:57.815Z,38.90
2023-05-25T15:21:00.310Z,39.00
2023-05-25T15:26:04.564Z,37.60
2023-05-25T15:31:06.945Z,36.80
2023-05-25T15:36:09.305Z,37.50
2023-05-25T15:41:16.010Z,37.60
2023-05-25T15:46:18.870Z,38.10
2023-05-25T15:51:21.615Z,37.40
2023-05-25T15:56:24.042Z,36.50
2023-05-25T16:01:26.817Z,36.60
2023-05-25T16:06:30.527Z,37.10
2023-05-25T16:11:34.098Z,36.90
2023-05-25T16:16:36.528Z,37.10
2023-05-25T16:21:41.230Z,36.50
2023-05-25T16:26:43.640Z,36.20
2023-05-25T16:31:46.017Z,36.10
2023-05-25T16:36:48.556Z,35.90
2023-05-25T16:41:51.077Z,36.60
2023-05-25T16:46:53.446Z,36.80
2023-05-25T16:51:56.043Z,34.60
2023-05-25T16:56:58.371Z,34.10
2023-05-25T17:02:00.864Z,33.70
2023-05-25T17:07:03.263Z,34.50
2023-05-25T17:12:06.489Z,34.70
2023-05-25T17:17:08.841Z,33.70
2023-05-25T17:22:11.166Z,32.50
2023-05-25T17:27:13.840Z,30.20
2023-05-25T17:32:16.294Z,28.90
2023-05-25T17:37:19.217Z,27.50
2023-05-25T17:42:23.274Z,26.40
2023-05-25T17:47:26.297Z,26.20
2023-05-25T17:52:30.546Z,26.10
2023-05-25T17:57:32.912Z,25.80
2023-05-25T18:02:35.508Z,25.20
2023-05-25T18:07:37.892Z,24.80
2023-05-25T18:12:40.816Z,24.20
2023-05-25T18:17:43.376Z,24.20
2023-05-25T18:22:45.801Z,24.00
2023-05-25T18:27:48.111Z,23.50
2023-05-25T18:32:50.666Z,23.40
2023-05-25T18:37:53.024Z,23.20
2023-05-25T18:43:04.171Z,22.90
2023-05-25T18:48:09.412Z,22.70
2023-05-25T18:53:12.009Z,22.40
2023-05-25T18:58:16.857Z,22.20
2023-05-25T19:03:19.953Z,21.80
2023-05-25T19:08:30.172Z,21.70
2023-05-25T19:13:34.804Z,21.50
2023-05-25T19:18:39.677Z,21.20
2023-05-25T19:23:44.899Z,21.00
2023-05-25T19:28:47.361Z,20.80
2023-05-25T19:33:49.755Z,20.60
2023-05-25T19:38:55.913Z,20.20
2023-05-25T19:43:59.781Z,20.20
2023-05-25T19:49:04.883Z,20.10
2023-05-25T19:54:11.940Z,20.00
2023-05-25T19:59:14.581Z,19.80
2023-05-25T20:04:17.035Z,19.50
2023-05-25T20:09:32.457Z,19.30
2023-05-25T20:14:34.913Z,19.00
2023-05-25T20:19:38.240Z,18.90
2023-05-25T20:24:43.467Z,18.60
2023-05-25T20:29:45.976Z,18.20
2023-05-25T20:34:48.499Z,17.90
2023-05-25T20:39:51.025Z,17.70
2023-05-25T20:44:53.918Z,17.70
2023-05-25T20:49:56.567Z,17.80
2023-05-25T20:54:59.024Z,17.70
2023-05-25T21:00:01.514Z,17.50
2023-05-25T21:05:04.217Z,17.70
2023-05-25T21:10:07.108Z,17.50
2023-05-25T21:15:09.829Z,17.50
2023-05-25T21:20:12.320Z,17.60
2023-05-25T21:25:14.854Z,17.60
2023-05-25T21:30:17.387Z,17.50
2023-05-25T21:35:19.875Z,17.40
2023-05-25T21:40:22.373Z,17.40
2023-05-25T21:45:25.486Z,17.40
2023-05-25T21:50:29.431Z,17.10
2023-05-25T21:55:32.090Z,17.10
2023-05-25T22:00:35.521Z,16.90
2023-05-25T22:05:38.198Z,16.90
2023-05-25T22:10:41.230Z,16.80
2023-05-25T22:16:33.790Z,16.70
2023-05-25T22:21:37.293Z,16.60
2023-05-25T22:26:39.737Z,16.40
2023-05-25T22:31:42.223Z,16.30
2023-05-25T22:36:44.642Z,16.20
2023-05-25T22:41:47.131Z,16.10
2023-05-25T22:46:49.931Z,16.00
2023-05-25T22:51:52.452Z,15.90
2023-05-25T22:56:54.850Z,15.70
2023-05-25T23:01:57.347Z,15.90
2023-05-25T23:06:59.793Z,15.60
2023-05-25T23:12:02.297Z,15.60
2023-05-25T23:17:04.944Z,15.60
2023-05-25T23:22:07.464Z,15.40
2023-05-25T23:27:09.960Z,15.40
2023-05-25T23:32:12.358Z,15.30
2023-05-25T23:37:14.730Z,15.10
2023-05-25T23:42:18.642Z,15.20
2023-05-25T23:47:21.675Z,15.10
2023-05-25T23:52:24.202Z,15.10
2023-05-25T23:57:26.597Z,15.00
